sensor_id;sensor_type;location;lat;lon;timestamp;P1;durP1;ratioP1;P2;durP2;ratioP2
13469;SDS011;6807;48.682;9.032;2023-08-21T00:00:48;9.55;;;5.22;;
13469;SDS011;6807;48.682;9.032;2023-08-21T00:03:14;6.50;;;5.55;;
13469;SDS011;6807;48.682;9.032;2023-08-21T00:05:41;6.45;;;5.75;;
13469;SDS011;6807;48.682;9.032;2023-08-21T00:08:09;5.88;;;5.28;;
13469;SDS011;6807;48.682;9.032;2023-08-21T00:10:36;8.63;;;5.97;;
13469;SDS011;6807;48.682;9.032;2023-08-21T00:13:04;6.70;;;5.32;;
13469;SDS011;6807;48.682;9.032;2023-08-21T00:15:31;8.35;;;6.25;;
13469;SDS011;6807;48.682;9.032;2023-08-21T00:17:59;9.05;;;6.22;;
13469;SDS011;6807;48.682;9.032;2023-08-21T00:20:26;7.45;;;6.13;;
13469;SDS011;6807;48.682;9.032;2023-08-21T00:22:53;10.75;;;6.25;;
13469;SDS011;6807;48.682;9.032;2023-08-21T00:25:21;6.78;;;5.63;;
13469;SDS011;6807;48.682;9.032;2023-08-21T00:27:47;6.68;;;6.00;;
13469;SDS011;6807;48.682;9.032;2023-08-21T00:30:14;10.45;;;5.68;;
13469;SDS011;6807;48.682;9.032;2023-08-21T00:32:41;8.02;;;6.00;;
13469;SDS011;6807;48.682;9.032;2023-08-21T00:35:10;8.50;;;6.55;;
13469;SDS011;6807;48.682;9.032;2023-08-21T00:37:37;6.15;;;5.55;;
13469;SDS011;6807;48.682;9.032;2023-08-21T00:40:04;6.72;;;5.95;;
13469;SDS011;6807;48.682;9.032;2023-08-21T00:42:31;8.13;;;6.00;;
13469;SDS011;6807;48.682;9.032;2023-08-21T00:44:58;7.28;;;6.22;;
13469;SDS011;6807;48.682;9.032;2023-08-21T00:47:26;10.73;;;6.50;;
13469;SDS011;6807;48.682;9.032;2023-08-21T00:49:53;7.07;;;5.82;;
13469;SDS011;6807;48.682;9.032;2023-08-21T00:52:21;6.78;;;5.95;;
13469;SDS011;6807;48.682;9.032;2023-08-21T00:54:48;8.70;;;6.25;;
13469;SDS011;6807;48.682;9.032;2023-08-21T00:57:15;7.00;;;6.20;;
13469;SDS011;6807;48.682;9.032;2023-08-21T00:59:42;8.48;;;6.38;;
13469;SDS011;6807;48.682;9.032;2023-08-21T01:02:10;8.05;;;6.30;;
13469;SDS011;6807;48.682;9.032;2023-08-21T01:04:36;7.40;;;6.07;;
13469;SDS011;6807;48.682;9.032;2023-08-21T01:07:02;6.85;;;6.22;;
13469;SDS011;6807;48.682;9.032;2023-08-21T01:09:39;8.57;;;6.28;;
13469;SDS011;6807;48.682;9.032;2023-08-21T01:12:12;6.90;;;6.30;;
13469;SDS011;6807;48.682;9.032;2023-08-21T01:14:50;8.55;;;6.75;;
13469;SDS011;6807;48.682;9.032;2023-08-21T01:17:20;11.68;;;6.90;;
13469;SDS011;6807;48.682;9.032;2023-08-21T01:19:50;8.20;;;6.45;;
13469;SDS011;6807;48.682;9.032;2023-08-21T01:22:18;6.93;;;6.22;;
13469;SDS011;6807;48.682;9.032;2023-08-21T01:24:53;11.57;;;7.00;;
13469;SDS011;6807;48.682;9.032;2023-08-21T01:27:20;9.52;;;6.85;;
13469;SDS011;6807;48.682;9.032;2023-08-21T01:29:47;10.00;;;6.80;;
13469;SDS011;6807;48.682;9.032;2023-08-21T01:32:17;11.27;;;7.03;;
13469;SDS011;6807;48.682;9.032;2023-08-21T01:34:58;7.97;;;6.65;;
13469;SDS011;6807;48.682;9.032;2023-08-21T01:37:26;7.15;;;6.55;;
13469;SDS011;6807;48.682;9.032;2023-08-21T01:39:54;8.77;;;6.65;;
13469;SDS011;6807;48.682;9.032;2023-08-21T01:42:24;9.25;;;6.60;;
13469;SDS011;6807;48.682;9.032;2023-08-21T01:44:51;7.35;;;6.60;;
13469;SDS011;6807;48.682;9.032;2023-08-21T01:47:18;7.13;;;6.43;;
13469;SDS011;6807;48.682;9.032;2023-08-21T01:49:45;7.72;;;6.78;;
13469;SDS011;6807;48.682;9.032;2023-08-21T01:52:12;7.45;;;6.72;;
13469;SDS011;6807;48.682;9.032;2023-08-21T01:54:39;8.10;;;7.03;;
13469;SDS011;6807;48.682;9.032;2023-08-21T01:57:08;10.00;;;6.90;;
13469;SDS011;6807;48.682;9.032;2023-08-21T01:59:35;8.05;;;6.70;;
13469;SDS011;6807;48.682;9.032;2023-08-21T02:02:02;8.30;;;7.18;;
13469;SDS011;6807;48.682;9.032;2023-08-21T02:04:29;8.50;;;6.80;;
13469;SDS011;6807;48.682;9.032;2023-08-21T02:06:56;7.15;;;6.50;;
13469;SDS011;6807;48.682;9.032;2023-08-21T02:09:23;10.50;;;6.32;;
13469;SDS011;6807;48.682;9.032;2023-08-21T02:11:50;8.10;;;6.65;;
13469;SDS011;6807;48.682;9.032;2023-08-21T02:14:18;7.95;;;7.15;;
13469;SDS011;6807;48.682;9.032;2023-08-21T02:16:46;7.88;;;7.18;;
13469;SDS011;6807;48.682;9.032;2023-08-21T02:19:13;9.90;;;7.85;;
13469;SDS011;6807;48.682;9.032;2023-08-21T02:21:40;8.52;;;7.32;;
13469;SDS011;6807;48.682;9.032;2023-08-21T02:24:08;7.40;;;6.68;;
13469;SDS011;6807;48.682;9.032;2023-08-21T02:26:35;8.38;;;7.25;;
13469;SDS011;6807;48.682;9.032;2023-08-21T02:29:02;9.15;;;7.55;;
13469;SDS011;6807;48.682;9.032;2023-08-21T02:31:31;10.30;;;7.63;;
13469;SDS011;6807;48.682;9.032;2023-08-21T02:33:58;10.63;;;8.15;;
13469;SDS011;6807;48.682;9.032;2023-08-21T02:36:24;8.07;;;7.30;;
13469;SDS011;6807;48.682;9.032;2023-08-21T02:38:51;8.35;;;7.05;;
13469;SDS011;6807;48.682;9.032;2023-08-21T02:41:18;8.10;;;7.30;;
13469;SDS011;6807;48.682;9.032;2023-08-21T02:43:45;8.38;;;7.53;;
13469;SDS011;6807;48.682;9.032;2023-08-21T02:46:12;8.38;;;7.55;;
13469;SDS011;6807;48.682;9.032;2023-08-21T02:48:41;7.88;;;7.07;;
13469;SDS011;6807;48.682;9.032;2023-08-21T02:51:07;8.43;;;7.20;;
13469;SDS011;6807;48.682;9.032;2023-08-21T02:53:34;9.65;;;7.57;;
13469;SDS011;6807;48.682;9.032;2023-08-21T02:56:02;8.10;;;7.20;;
13469;SDS011;6807;48.682;9.032;2023-08-21T02:58:29;7.88;;;6.93;;
13469;SDS011;6807;48.682;9.032;2023-08-21T03:00:55;8.10;;;7.38;;
13469;SDS011;6807;48.682;9.032;2023-08-21T03:03:23;10.48;;;7.18;;
13469;SDS011;6807;48.682;9.032;2023-08-21T03:05:51;8.23;;;7.43;;
13469;SDS011;6807;48.682;9.032;2023-08-21T03:08:18;8.25;;;7.38;;
13469;SDS011;6807;48.682;9.032;2023-08-21T03:10:45;8.43;;;7.45;;
13469;SDS011;6807;48.682;9.032;2023-08-21T03:13:12;8.20;;;7.40;;
13469;SDS011;6807;48.682;9.032;2023-08-21T03:15:39;8.35;;;7.30;;
13469;SDS011;6807;48.682;9.032;2023-08-21T03:18:06;8.18;;;7.47;;
13469;SDS011;6807;48.682;9.032;2023-08-21T03:20:33;8.23;;;7.43;;
13469;SDS011;6807;48.682;9.032;2023-08-21T03:23:01;10.80;;;8.23;;
13469;SDS011;6807;48.682;9.032;2023-08-21T03:25:28;8.18;;;7.38;;
13469;SDS011;6807;48.682;9.032;2023-08-21T03:27:56;12.00;;;7.65;;
13469;SDS011;6807;48.682;9.032;2023-08-21T03:30:22;8.60;;;7.68;;
13469;SDS011;6807;48.682;9.032;2023-08-21T03:32:49;8.95;;;7.43;;
13469;SDS011;6807;48.682;9.032;2023-08-21T03:35:16;10.52;;;8.07;;
13469;SDS011;6807;48.682;9.032;2023-08-21T03:37:43;9.25;;;7.72;;
13469;SDS011;6807;48.682;9.032;2023-08-21T03:40:12;9.13;;;7.25;;
13469;SDS011;6807;48.682;9.032;2023-08-21T03:42:39;9.13;;;7.65;;
13469;SDS011;6807;48.682;9.032;2023-08-21T03:45:06;9.00;;;7.07;;
13469;SDS011;6807;48.682;9.032;2023-08-21T03:47:34;9.60;;;8.15;;
13469;SDS011;6807;48.682;9.032;2023-08-21T03:50:01;10.48;;;7.07;;
13469;SDS011;6807;48.682;9.032;2023-08-21T03:52:28;12.88;;;7.78;;
13469;SDS011;6807;48.682;9.032;2023-08-21T03:54:55;9.02;;;8.07;;
13469;SDS011;6807;48.682;9.032;2023-08-21T03:57:24;8.98;;;7.60;;
13469;SDS011;6807;48.682;9.032;2023-08-21T03:59:51;12.00;;;8.20;;
13469;SDS011;6807;48.682;9.032;2023-08-21T04:02:18;9.00;;;8.07;;
13469;SDS011;6807;48.682;9.032;2023-08-21T04:04:45;10.10;;;7.93;;
13469;SDS011;6807;48.682;9.032;2023-08-21T04:07:13;10.10;;;8.20;;
13469;SDS011;6807;48.682;9.032;2023-08-21T04:09:40;10.52;;;8.38;;
13469;SDS011;6807;48.682;9.032;2023-08-21T04:12:07;8.77;;;7.50;;
13469;SDS011;6807;48.682;9.032;2023-08-21T04:14:35;9.82;;;7.90;;
13469;SDS011;6807;48.682;9.032;2023-08-21T04:17:02;10.52;;;8.23;;
13469;SDS011;6807;48.682;9.032;2023-08-21T04:19:29;9.73;;;7.53;;
13469;SDS011;6807;48.682;9.032;2023-08-21T04:21:58;10.68;;;7.20;;
13469;SDS011;6807;48.682;9.032;2023-08-21T04:24:25;9.25;;;7.65;;
13469;SDS011;6807;48.682;9.032;2023-08-21T04:26:52;8.82;;;7.82;;
13469;SDS011;6807;48.682;9.032;2023-08-21T04:29:20;11.02;;;8.32;;
13469;SDS011;6807;48.682;9.032;2023-08-21T04:31:48;8.57;;;7.68;;
13469;SDS011;6807;48.682;9.032;2023-08-21T04:34:14;8.60;;;7.80;;
13469;SDS011;6807;48.682;9.032;2023-08-21T04:36:43;8.70;;;7.88;;
13469;SDS011;6807;48.682;9.032;2023-08-21T04:39:10;11.20;;;8.23;;
13469;SDS011;6807;48.682;9.032;2023-08-21T04:41:37;8.85;;;7.68;;
13469;SDS011;6807;48.682;9.032;2023-08-21T04:44:05;11.35;;;8.60;;
13469;SDS011;6807;48.682;9.032;2023-08-21T04:46:32;10.98;;;8.82;;
13469;SDS011;6807;48.682;9.032;2023-08-21T04:49:01;8.98;;;7.95;;
13469;SDS011;6807;48.682;9.032;2023-08-21T04:51:28;11.07;;;8.07;;
13469;SDS011;6807;48.682;9.032;2023-08-21T04:53:54;9.80;;;8.02;;
13469;SDS011;6807;48.682;9.032;2023-08-21T04:56:22;9.25;;;8.27;;
13469;SDS011;6807;48.682;9.032;2023-08-21T04:58:49;8.75;;;7.88;;
13469;SDS011;6807;48.682;9.032;2023-08-21T05:01:16;9.77;;;8.27;;
13469;SDS011;6807;48.682;9.032;2023-08-21T05:03:43;9.60;;;7.60;;
13469;SDS011;6807;48.682;9.032;2023-08-21T05:06:11;8.25;;;7.43;;
13469;SDS011;6807;48.682;9.032;2023-08-21T05:08:38;9.23;;;8.23;;
13469;SDS011;6807;48.682;9.032;2023-08-21T05:11:05;8.52;;;7.65;;
13469;SDS011;6807;48.682;9.032;2023-08-21T05:13:32;9.05;;;8.15;;
13469;SDS011;6807;48.682;9.032;2023-08-21T05:15:59;9.23;;;8.13;;
13469;SDS011;6807;48.682;9.032;2023-08-21T05:18:26;11.73;;;8.60;;
13469;SDS011;6807;48.682;9.032;2023-08-21T05:20:55;11.55;;;7.72;;
13469;SDS011;6807;48.682;9.032;2023-08-21T05:23:23;9.40;;;8.40;;
13469;SDS011;6807;48.682;9.032;2023-08-21T05:25:50;8.82;;;7.82;;
13469;SDS011;6807;48.682;9.032;2023-08-21T05:28:17;8.60;;;7.63;;
13469;SDS011;6807;48.682;9.032;2023-08-21T05:30:46;9.45;;;7.65;;
13469;SDS011;6807;48.682;9.032;2023-08-21T05:33:13;9.15;;;8.02;;
13469;SDS011;6807;48.682;9.032;2023-08-21T05:35:41;12.70;;;8.27;;
13469;SDS011;6807;48.682;9.032;2023-08-21T05:38:07;8.38;;;7.50;;
13469;SDS011;6807;48.682;9.032;2023-08-21T05:40:35;10.18;;;7.25;;
13469;SDS011;6807;48.682;9.032;2023-08-21T05:43:02;8.43;;;7.60;;
13469;SDS011;6807;48.682;9.032;2023-08-21T05:45:29;10.25;;;7.28;;
13469;SDS011;6807;48.682;9.032;2023-08-21T05:47:57;9.27;;;6.82;;
13469;SDS011;6807;48.682;9.032;2023-08-21T05:50:24;9.73;;;7.50;;
13469;SDS011;6807;48.682;9.032;2023-08-21T05:52:51;8.00;;;6.95;;
13469;SDS011;6807;48.682;9.032;2023-08-21T05:55:19;7.50;;;6.70;;
13469;SDS011;6807;48.682;9.032;2023-08-21T05:57:47;11.05;;;7.00;;
13469;SDS011;6807;48.682;9.032;2023-08-21T06:00:14;8.18;;;7.38;;
13469;SDS011;6807;48.682;9.032;2023-08-21T06:02:42;8.07;;;7.28;;
13469;SDS011;6807;48.682;9.032;2023-08-21T06:05:09;7.40;;;6.65;;
13469;SDS011;6807;48.682;9.032;2023-08-21T06:07:37;9.80;;;7.95;;
13469;SDS011;6807;48.682;9.032;2023-08-21T06:10:05;9.15;;;6.80;;
13469;SDS011;6807;48.682;9.032;2023-08-21T06:12:33;7.50;;;6.72;;
13469;SDS011;6807;48.682;9.032;2023-08-21T06:15:01;10.85;;;6.93;;
13469;SDS011;6807;48.682;9.032;2023-08-21T06:17:28;8.43;;;7.03;;
13469;SDS011;6807;48.682;9.032;2023-08-21T06:19:55;7.55;;;6.38;;
13469;SDS011;6807;48.682;9.032;2023-08-21T06:22:22;6.57;;;5.97;;
13469;SDS011;6807;48.682;9.032;2023-08-21T06:24:49;8.35;;;6.22;;
13469;SDS011;6807;48.682;9.032;2023-08-21T06:27:16;7.43;;;6.25;;
13469;SDS011;6807;48.682;9.032;2023-08-21T06:29:43;8.15;;;6.88;;
13469;SDS011;6807;48.682;9.032;2023-08-21T06:32:11;14.70;;;6.82;;
13469;SDS011;6807;48.682;9.032;2023-08-21T06:34:38;7.85;;;6.05;;
13469;SDS011;6807;48.682;9.032;2023-08-21T06:37:05;7.07;;;6.38;;
13469;SDS011;6807;48.682;9.032;2023-08-21T06:39:32;10.25;;;6.68;;
13469;SDS011;6807;48.682;9.032;2023-08-21T06:42:00;6.60;;;5.88;;
13469;SDS011;6807;48.682;9.032;2023-08-21T06:44:26;7.90;;;6.13;;
13469;SDS011;6807;48.682;9.032;2023-08-21T06:46:53;8.05;;;6.75;;
13469;SDS011;6807;48.682;9.032;2023-08-21T06:49:21;6.25;;;5.65;;
13469;SDS011;6807;48.682;9.032;2023-08-21T06:51:48;7.18;;;6.07;;
13469;SDS011;6807;48.682;9.032;2023-08-21T06:54:16;11.70;;;6.13;;
13469;SDS011;6807;48.682;9.032;2023-08-21T06:56:43;6.20;;;5.50;;
13469;SDS011;6807;48.682;9.032;2023-08-21T06:59:09;9.98;;;6.43;;
13469;SDS011;6807;48.682;9.032;2023-08-21T07:01:36;8.48;;;6.20;;
13469;SDS011;6807;48.682;9.032;2023-08-21T07:04:03;6.75;;;5.13;;
13469;SDS011;6807;48.682;9.032;2023-08-21T07:06:32;9.25;;;5.57;;
13469;SDS011;6807;48.682;9.032;2023-08-21T07:08:58;9.27;;;6.00;;
13469;SDS011;6807;48.682;9.032;2023-08-21T07:11:26;9.48;;;5.65;;
13469;SDS011;6807;48.682;9.032;2023-08-21T07:13:53;7.00;;;6.22;;
13469;SDS011;6807;48.682;9.032;2023-08-21T07:16:20;7.55;;;6.13;;
13469;SDS011;6807;48.682;9.032;2023-08-21T07:18:47;8.18;;;5.70;;
13469;SDS011;6807;48.682;9.032;2023-08-21T07:21:13;7.90;;;5.82;;
13469;SDS011;6807;48.682;9.032;2023-08-21T07:23:42;9.88;;;5.38;;
13469;SDS011;6807;48.682;9.032;2023-08-21T07:26:09;10.50;;;5.45;;
13469;SDS011;6807;48.682;9.032;2023-08-21T07:28:36;8.40;;;6.18;;
13469;SDS011;6807;48.682;9.032;2023-08-21T07:31:03;16.17;;;5.57;;
13469;SDS011;6807;48.682;9.032;2023-08-21T07:33:30;8.88;;;5.70;;
13469;SDS011;6807;48.682;9.032;2023-08-21T07:35:57;8.52;;;5.30;;
13469;SDS011;6807;48.682;9.032;2023-08-21T07:38:24;10.57;;;6.50;;
13469;SDS011;6807;48.682;9.032;2023-08-21T07:41:01;7.40;;;5.50;;
13469;SDS011;6807;48.682;9.032;2023-08-21T07:43:28;8.55;;;5.70;;
13469;SDS011;6807;48.682;9.032;2023-08-21T07:45:55;8.75;;;5.93;;
13469;SDS011;6807;48.682;9.032;2023-08-21T07:48:22;10.70;;;6.03;;
13469;SDS011;6807;48.682;9.032;2023-08-21T07:50:50;8.15;;;5.47;;
13469;SDS011;6807;48.682;9.032;2023-08-21T07:53:18;10.75;;;6.15;;
13469;SDS011;6807;48.682;9.032;2023-08-21T07:55:44;6.78;;;5.57;;
13469;SDS011;6807;48.682;9.032;2023-08-21T07:58:13;10.00;;;5.82;;
13469;SDS011;6807;48.682;9.032;2023-08-21T08:00:40;9.07;;;5.40;;
13469;SDS011;6807;48.682;9.032;2023-08-21T08:03:07;9.60;;;5.30;;
13469;SDS011;6807;48.682;9.032;2023-08-21T08:05:35;8.73;;;5.57;;
13469;SDS011;6807;48.682;9.032;2023-08-21T08:08:02;8.38;;;6.22;;
13469;SDS011;6807;48.682;9.032;2023-08-21T08:10:30;6.40;;;4.80;;
13469;SDS011;6807;48.682;9.032;2023-08-21T08:12:56;11.02;;;5.53;;
13469;SDS011;6807;48.682;9.032;2023-08-21T08:15:25;8.75;;;4.75;;
13469;SDS011;6807;48.682;9.032;2023-08-21T08:17:53;6.78;;;4.80;;
13469;SDS011;6807;48.682;9.032;2023-08-21T08:20:21;8.25;;;5.43;;
13469;SDS011;6807;48.682;9.032;2023-08-21T08:22:48;8.18;;;5.57;;
13469;SDS011;6807;48.682;9.032;2023-08-21T08:25:15;10.18;;;5.40;;
13469;SDS011;6807;48.682;9.032;2023-08-21T08:27:43;8.32;;;5.00;;
13469;SDS011;6807;48.682;9.032;2023-08-21T08:30:10;7.03;;;4.95;;
13469;SDS011;6807;48.682;9.032;2023-08-21T08:32:39;7.10;;;5.07;;
13469;SDS011;6807;48.682;9.032;2023-08-21T08:35:09;7.63;;;4.80;;
13469;SDS011;6807;48.682;9.032;2023-08-21T08:37:37;8.15;;;5.10;;
13469;SDS011;6807;48.682;9.032;2023-08-21T08:40:04;5.53;;;4.22;;
13469;SDS011;6807;48.682;9.032;2023-08-21T08:42:32;6.72;;;4.90;;
13469;SDS011;6807;48.682;9.032;2023-08-21T08:45:00;5.80;;;4.63;;
13469;SDS011;6807;48.682;9.032;2023-08-21T08:47:29;7.32;;;4.10;;
13469;SDS011;6807;48.682;9.032;2023-08-21T08:50:00;5.07;;;3.53;;
13469;SDS011;6807;48.682;9.032;2023-08-21T08:52:28;4.20;;;3.80;;
13469;SDS011;6807;48.682;9.032;2023-08-21T08:54:58;4.85;;;4.20;;
13469;SDS011;6807;48.682;9.032;2023-08-21T08:57:25;5.90;;;3.67;;
13469;SDS011;6807;48.682;9.032;2023-08-21T08:59:52;5.43;;;4.35;;
13469;SDS011;6807;48.682;9.032;2023-08-21T09:02:29;4.97;;;4.47;;
13469;SDS011;6807;48.682;9.032;2023-08-21T09:04:56;6.45;;;4.45;;
13469;SDS011;6807;48.682;9.032;2023-08-21T09:07:25;7.35;;;4.60;;
13469;SDS011;6807;48.682;9.032;2023-08-21T09:09:52;5.70;;;4.25;;
13469;SDS011;6807;48.682;9.032;2023-08-21T09:12:19;5.47;;;4.85;;
13469;SDS011;6807;48.682;9.032;2023-08-21T09:14:46;5.95;;;4.43;;
13469;SDS011;6807;48.682;9.032;2023-08-21T09:17:13;7.15;;;4.70;;
13469;SDS011;6807;48.682;9.032;2023-08-21T09:19:41;5.93;;;4.07;;
13469;SDS011;6807;48.682;9.032;2023-08-21T09:22:09;4.20;;;3.83;;
13469;SDS011;6807;48.682;9.032;2023-08-21T09:31:08;6.18;;;5.03;;
13469;SDS011;6807;48.682;9.032;2023-08-21T09:37:02;5.35;;;4.50;;
13469;SDS011;6807;48.682;9.032;2023-08-21T09:43:45;6.82;;;4.28;;
13469;SDS011;6807;48.682;9.032;2023-08-21T09:46:14;7.13;;;4.13;;
13469;SDS011;6807;48.682;9.032;2023-08-21T09:48:42;5.88;;;4.38;;
13469;SDS011;6807;48.682;9.032;2023-08-21T09:51:10;6.07;;;4.40;;
13469;SDS011;6807;48.682;9.032;2023-08-21T09:57:00;7.10;;;4.78;;
13469;SDS011;6807;48.682;9.032;2023-08-21T09:59:30;6.03;;;4.15;;
13469;SDS011;6807;48.682;9.032;2023-08-21T10:01:58;7.28;;;4.30;;
13469;SDS011;6807;48.682;9.032;2023-08-21T10:04:25;5.80;;;3.85;;
13469;SDS011;6807;48.682;9.032;2023-08-21T10:06:54;7.70;;;4.43;;
13469;SDS011;6807;48.682;9.032;2023-08-21T10:09:23;4.90;;;4.22;;
13469;SDS011;6807;48.682;9.032;2023-08-21T10:11:51;5.95;;;4.72;;
13469;SDS011;6807;48.682;9.032;2023-08-21T10:14:19;4.97;;;4.18;;
13469;SDS011;6807;48.682;9.032;2023-08-21T10:16:49;6.38;;;4.53;;
13469;SDS011;6807;48.682;9.032;2023-08-21T10:19:17;5.55;;;5.05;;
13469;SDS011;6807;48.682;9.032;2023-08-21T10:21:46;7.28;;;4.40;;
13469;SDS011;6807;48.682;9.032;2023-08-21T10:24:14;6.63;;;4.63;;
13469;SDS011;6807;48.682;9.032;2023-08-21T10:26:53;7.00;;;5.00;;
13469;SDS011;6807;48.682;9.032;2023-08-21T10:29:20;4.82;;;4.18;;
13469;SDS011;6807;48.682;9.032;2023-08-21T10:31:48;5.13;;;4.40;;
13469;SDS011;6807;48.682;9.032;2023-08-21T10:34:30;6.25;;;4.35;;
13469;SDS011;6807;48.682;9.032;2023-08-21T10:37:08;5.88;;;4.72;;
13469;SDS011;6807;48.682;9.032;2023-08-21T10:39:37;7.95;;;4.97;;
13469;SDS011;6807;48.682;9.032;2023-08-21T10:42:08;7.63;;;5.03;;
13469;SDS011;6807;48.682;9.032;2023-08-21T10:44:48;5.82;;;4.78;;
13469;SDS011;6807;48.682;9.032;2023-08-21T10:47:19;7.93;;;4.65;;
13469;SDS011;6807;48.682;9.032;2023-08-21T10:49:49;5.70;;;5.07;;
13469;SDS011;6807;48.682;9.032;2023-08-21T10:52:20;6.70;;;4.63;;
13469;SDS011;6807;48.682;9.032;2023-08-21T10:54:48;6.03;;;5.38;;
13469;SDS011;6807;48.682;9.032;2023-08-21T10:57:17;5.22;;;4.28;;
13469;SDS011;6807;48.682;9.032;2023-08-21T10:59:54;5.95;;;4.97;;
13469;SDS011;6807;48.682;9.032;2023-08-21T11:02:23;6.00;;;4.75;;
13469;SDS011;6807;48.682;9.032;2023-08-21T11:04:50;7.78;;;4.90;;
13469;SDS011;6807;48.682;9.032;2023-08-21T11:07:17;5.30;;;4.85;;
13469;SDS011;6807;48.682;9.032;2023-08-21T11:09:44;5.18;;;4.50;;
13469;SDS011;6807;48.682;9.032;2023-08-21T11:12:12;6.45;;;4.90;;
13469;SDS011;6807;48.682;9.032;2023-08-21T11:14:40;6.80;;;4.82;;
13469;SDS011;6807;48.682;9.032;2023-08-21T11:17:08;7.05;;;5.20;;
13469;SDS011;6807;48.682;9.032;2023-08-21T11:19:37;11.07;;;5.13;;
13469;SDS011;6807;48.682;9.032;2023-08-21T11:22:05;5.88;;;4.82;;
13469;SDS011;6807;48.682;9.032;2023-08-21T11:24:39;5.60;;;4.82;;
13469;SDS011;6807;48.682;9.032;2023-08-21T11:27:07;7.03;;;4.50;;
13469;SDS011;6807;48.682;9.032;2023-08-21T11:29:36;6.95;;;4.70;;
13469;SDS011;6807;48.682;9.032;2023-08-21T11:32:07;5.82;;;4.35;;
13469;SDS011;6807;48.682;9.032;2023-08-21T11:34:34;5.55;;;4.65;;
13469;SDS011;6807;48.682;9.032;2023-08-21T11:37:03;6.93;;;4.63;;
13469;SDS011;6807;48.682;9.032;2023-08-21T11:39:41;8.93;;;5.43;;
13469;SDS011;6807;48.682;9.032;2023-08-21T11:42:09;6.85;;;4.70;;
13469;SDS011;6807;48.682;9.032;2023-08-21T11:44:41;7.18;;;4.57;;
13469;SDS011;6807;48.682;9.032;2023-08-21T11:47:09;6.95;;;5.15;;
13469;SDS011;6807;48.682;9.032;2023-08-21T11:49:37;5.35;;;4.72;;
13469;SDS011;6807;48.682;9.032;2023-08-21T11:52:07;8.10;;;4.45;;
13469;SDS011;6807;48.682;9.032;2023-08-21T11:54:34;11.25;;;5.30;;
13469;SDS011;6807;48.682;9.032;2023-08-21T11:57:05;6.25;;;4.78;;
13469;SDS011;6807;48.682;9.032;2023-08-21T11:59:32;6.35;;;5.43;;
13469;SDS011;6807;48.682;9.032;2023-08-21T12:01:59;8.02;;;5.60;;
13469;SDS011;6807;48.682;9.032;2023-08-21T12:04:27;7.32;;;5.00;;
13469;SDS011;6807;48.682;9.032;2023-08-21T12:06:53;8.02;;;5.45;;
13469;SDS011;6807;48.682;9.032;2023-08-21T12:09:22;6.57;;;5.10;;
13469;SDS011;6807;48.682;9.032;2023-08-21T12:11:48;5.70;;;5.03;;
13469;SDS011;6807;48.682;9.032;2023-08-21T12:14:15;6.80;;;5.32;;
13469;SDS011;6807;48.682;9.032;2023-08-21T12:16:42;5.97;;;4.93;;
13469;SDS011;6807;48.682;9.032;2023-08-21T12:19:09;7.15;;;5.28;;
13469;SDS011;6807;48.682;9.032;2023-08-21T12:21:37;9.48;;;5.43;;
13469;SDS011;6807;48.682;9.032;2023-08-21T12:24:04;7.13;;;5.03;;
13469;SDS011;6807;48.682;9.032;2023-08-21T12:26:32;9.93;;;4.85;;
13469;SDS011;6807;48.682;9.032;2023-08-21T12:28:59;7.32;;;4.72;;
13469;SDS011;6807;48.682;9.032;2023-08-21T12:31:27;6.43;;;5.32;;
13469;SDS011;6807;48.682;9.032;2023-08-21T12:33:54;5.82;;;4.88;;
13469;SDS011;6807;48.682;9.032;2023-08-21T12:36:21;6.05;;;4.63;;
13469;SDS011;6807;48.682;9.032;2023-08-21T12:38:48;6.65;;;4.85;;
13469;SDS011;6807;48.682;9.032;2023-08-21T12:41:14;6.22;;;5.20;;
13469;SDS011;6807;48.682;9.032;2023-08-21T12:43:43;5.43;;;4.60;;
13469;SDS011;6807;48.682;9.032;2023-08-21T12:46:10;7.35;;;4.75;;
13469;SDS011;6807;48.682;9.032;2023-08-21T12:48:38;6.25;;;5.03;;
13469;SDS011;6807;48.682;9.032;2023-08-21T12:51:05;9.43;;;4.93;;
13469;SDS011;6807;48.682;9.032;2023-08-21T12:53:32;6.50;;;5.05;;
13469;SDS011;6807;48.682;9.032;2023-08-21T12:55:59;6.93;;;5.03;;
13469;SDS011;6807;48.682;9.032;2023-08-21T12:58:26;5.88;;;4.72;;
13469;SDS011;6807;48.682;9.032;2023-08-21T13:00:54;6.68;;;5.15;;
13469;SDS011;6807;48.682;9.032;2023-08-21T13:03:21;5.22;;;4.70;;
13469;SDS011;6807;48.682;9.032;2023-08-21T13:05:48;7.78;;;4.70;;
13469;SDS011;6807;48.682;9.032;2023-08-21T13:08:15;8.98;;;5.18;;
13469;SDS011;6807;48.682;9.032;2023-08-21T13:10:42;5.53;;;4.82;;
13469;SDS011;6807;48.682;9.032;2023-08-21T13:13:09;6.45;;;5.32;;
13469;SDS011;6807;48.682;9.032;2023-08-21T13:15:36;8.10;;;5.20;;
13469;SDS011;6807;48.682;9.032;2023-08-21T13:18:05;6.63;;;4.68;;
13469;SDS011;6807;48.682;9.032;2023-08-21T13:20:31;9.68;;;4.88;;
13469;SDS011;6807;48.682;9.032;2023-08-21T13:22:58;6.03;;;5.10;;
13469;SDS011;6807;48.682;9.032;2023-08-21T13:25:25;5.97;;;5.38;;
13469;SDS011;6807;48.682;9.032;2023-08-21T13:27:52;5.82;;;4.88;;
13469;SDS011;6807;48.682;9.032;2023-08-21T13:30:20;6.60;;;5.03;;
13469;SDS011;6807;48.682;9.032;2023-08-21T13:32:47;7.47;;;5.57;;
13469;SDS011;6807;48.682;9.032;2023-08-21T13:35:16;7.82;;;4.90;;
13469;SDS011;6807;48.682;9.032;2023-08-21T13:37:44;5.68;;;4.65;;
13469;SDS011;6807;48.682;9.032;2023-08-21T13:40:11;5.20;;;4.47;;
13469;SDS011;6807;48.682;9.032;2023-08-21T13:42:41;6.38;;;4.60;;
13469;SDS011;6807;48.682;9.032;2023-08-21T13:45:10;7.05;;;4.88;;
13469;SDS011;6807;48.682;9.032;2023-08-21T13:47:38;6.05;;;4.90;;
13469;SDS011;6807;48.682;9.032;2023-08-21T13:50:05;4.90;;;4.40;;
13469;SDS011;6807;48.682;9.032;2023-08-21T13:52:35;5.75;;;4.75;;
13469;SDS011;6807;48.682;9.032;2023-08-21T13:55:03;6.95;;;5.20;;
13469;SDS011;6807;48.682;9.032;2023-08-21T13:57:31;6.57;;;5.05;;
13469;SDS011;6807;48.682;9.032;2023-08-21T13:59:58;5.22;;;4.70;;
13469;SDS011;6807;48.682;9.032;2023-08-21T14:02:25;9.43;;;5.15;;
13469;SDS011;6807;48.682;9.032;2023-08-21T14:04:52;7.03;;;4.80;;
13469;SDS011;6807;48.682;9.032;2023-08-21T14:07:19;5.38;;;4.88;;
13469;SDS011;6807;48.682;9.032;2023-08-21T14:09:47;6.95;;;5.18;;
13469;SDS011;6807;48.682;9.032;2023-08-21T14:12:14;6.15;;;4.47;;
13469;SDS011;6807;48.682;9.032;2023-08-21T14:14:41;6.90;;;4.88;;
13469;SDS011;6807;48.682;9.032;2023-08-21T14:17:08;5.05;;;4.38;;
13469;SDS011;6807;48.682;9.032;2023-08-21T14:19:35;5.78;;;4.43;;
13469;SDS011;6807;48.682;9.032;2023-08-21T14:22:02;6.35;;;4.53;;
13469;SDS011;6807;48.682;9.032;2023-08-21T14:24:29;6.95;;;4.40;;
13469;SDS011;6807;48.682;9.032;2023-08-21T14:26:58;9.48;;;5.10;;
13469;SDS011;6807;48.682;9.032;2023-08-21T14:29:25;5.10;;;4.22;;
13469;SDS011;6807;48.682;9.032;2023-08-21T14:31:52;8.68;;;4.88;;
13469;SDS011;6807;48.682;9.032;2023-08-21T14:34:19;5.72;;;4.68;;
13469;SDS011;6807;48.682;9.032;2023-08-21T14:36:47;8.90;;;4.53;;
13469;SDS011;6807;48.682;9.032;2023-08-21T14:39:14;8.38;;;4.68;;
13469;SDS011;6807;48.682;9.032;2023-08-21T14:41:41;5.82;;;4.80;;
13469;SDS011;6807;48.682;9.032;2023-08-21T14:44:09;6.35;;;4.57;;
13469;SDS011;6807;48.682;9.032;2023-08-21T14:46:36;6.18;;;4.60;;
13469;SDS011;6807;48.682;9.032;2023-08-21T14:49:03;7.40;;;4.93;;
13469;SDS011;6807;48.682;9.032;2023-08-21T14:51:30;6.22;;;4.43;;
13469;SDS011;6807;48.682;9.032;2023-08-21T14:53:57;5.18;;;4.50;;
13469;SDS011;6807;48.682;9.032;2023-08-21T14:56:24;6.15;;;4.30;;
13469;SDS011;6807;48.682;9.032;2023-08-21T14:58:51;8.07;;;5.13;;
13469;SDS011;6807;48.682;9.032;2023-08-21T15:01:19;5.90;;;4.35;;
13469;SDS011;6807;48.682;9.032;2023-08-21T15:03:46;7.45;;;4.50;;
13469;SDS011;6807;48.682;9.032;2023-08-21T15:06:13;10.98;;;4.47;;
13469;SDS011;6807;48.682;9.032;2023-08-21T15:08:41;6.53;;;4.40;;
13469;SDS011;6807;48.682;9.032;2023-08-21T15:11:09;5.70;;;4.43;;
13469;SDS011;6807;48.682;9.032;2023-08-21T15:13:36;5.82;;;4.60;;
13469;SDS011;6807;48.682;9.032;2023-08-21T15:16:04;5.43;;;4.90;;
13469;SDS011;6807;48.682;9.032;2023-08-21T15:18:32;6.15;;;4.88;;
13469;SDS011;6807;48.682;9.032;2023-08-21T15:20:59;5.95;;;4.25;;